Time;durP1;ratioP1;P1;durP2;ratioP2;P2;SDS_P1;SDS_P2;PMS_P1;PMS_P2;Temp;Humidity;BMP_temperature;BMP_pressure;BME280_temperature;BME280_humidity;BME280_pressure;Samples;Min_cycle;Max_cycle;Signal;HPM_P1;HPM_P2
2024/03/09 11:50:21;;;;;;;14.10;7.90;;;;;;;9.09;48.48;100921.01;106552;1253;74630;-93
2024/03/09 11:52:55;;;;;;;13.00;7.90;;;;;;;9.02;48.79;100917.45;106488;1254;69970;-84
2024/03/09 11:55:31;;;;;;;17.70;9.50;;;;;;;9.00;49.29;100918.32;106684;1252;71390;-92
2024/03/09 11:58:09;;;;;;;14.40;8.60;;;;;;;8.96;49.72;100917.89;106483;1253;61452;-84
2024/03/09 12:00:43;;;;;;;16.80;9.60;;;;;;;8.96;50.15;100916.64;106629;1256;61356;-93
2024/03/09 12:03:23;;;;;;;14.10;8.30;;;;;;;9.07;50.14;100915.11;106443;1258;73441;-91
2024/03/09 12:05:58;;;;;;;18.10;9.00;;;;;;;9.21;50.30;100914.37;106747;1258;69264;-93
2024/03/09 12:08:31;;;;;;;15.30;7.90;;;;;;;9.40;49.52;100913.17;106661;1257;73789;-88
2024/03/09 12:11:05;;;;;;;16.20;8.30;;;;;;;9.53;48.69;100914.05;106442;1258;61350;-89
2024/03/09 12:13:39;;;;;;;14.80;8.60;;;;;;;9.68;48.61;100916.22;106634;1258;61187;-84
2024/03/09 12:16:14;;;;;;;14.60;7.90;;;;;;;9.80;48.14;100916.48;106738;1253;77340;-86
2024/03/09 12:18:48;;;;;;;15.20;9.50;;;;;;;9.82;46.99;100918.07;106311;1256;67443;-84
2024/03/09 12:21:25;;;;;;;17.00;9.60;;;;;;;9.75;46.97;100921.79;106724;1253;72873;-84
2024/03/09 12:23:59;;;;;;;18.40;8.80;;;;;;;9.67;46.85;100921.25;107196;1253;61447;-84
2024/03/09 12:26:33;;;;;;;16.50;8.40;;;;;;;9.59;46.76;100920.41;106449;1256;61416;-84
2024/03/09 12:29:10;;;;;;;27.90;14.50;;;;;;;9.50;46.58;100918.88;106563;1256;75800;-84
2024/03/09 12:31:48;;;;;;;13.10;6.90;;;;;;;9.44;48.19;100916.02;106594;1253;68442;-83
2024/03/09 12:34:22;;;;;;;12.20;6.70;;;;;;;9.48;48.92;100916.40;106636;1259;72879;-84
2024/03/09 12:36:57;;;;;;;17.40;9.30;;;;;;;9.60;48.87;100913.06;106315;1257;61306;-83
2024/03/09 12:39:32;;;;;;;17.90;8.50;;;;;;;9.67;47.98;100914.91;106409;1254;61355;-90
2024/03/09 12:42:06;;;;;;;12.90;6.50;;;;;;;9.77;47.59;100913.89;106742;1255;76042;-83
2024/03/09 12:44:41;;;;;;;14.90;8.20;;;;;;;9.80;47.46;100915.16;106572;1252;70890;-83
2024/03/09 12:47:14;;;;;;;16.30;8.60;;;;;;;9.80;46.72;100917.95;106592;1257;75020;-83
2024/03/09 12:49:50;;;;;;;21.20;11.50;;;;;;;9.86;47.18;100918.02;106634;1257;61286;-91
2024/03/09 12:52:30;;;;;;;12.90;6.70;;;;;;;9.86;47.53;100914.39;107170;1256;62933;-85
2024/03/09 12:55:08;;;;;;;27.30;13.80;;;;;;;9.84;47.35;100913.65;107193;1253;73543;-84
2024/03/09 12:57:36;;;;;;;15.10;8.70;;;;;;;9.83;46.98;100911.04;106454;1257;70246;-85
2024/03/09 13:00:19;;;;;;;34.40;18.30;;;;;;;9.82;46.83;100917.80;106488;1259;73774;-84
2024/03/09 13:03:00;;;;;;;20.30;9.60;;;;;;;9.74;46.87;100917.20;106527;1258;61356;-84
2024/03/09 13:05:41;;;;;;;17.40;8.50;;;;;;;9.63;47.02;100915.59;107125;1256;62334;-92
2024/03/09 13:08:15;;;;;;;19.70;8.80;;;;;;;9.54;47.00;100916.11;106960;1257;74691;-93
2024/03/09 13:10:55;;;;;;;24.80;13.00;;;;;;;9.45;47.31;100915.33;107088;1256;71879;-85
2024/03/09 13:13:35;;;;;;;21.40;9.30;;;;;;;9.49;48.26;100914.50;106495;1257;73804;-84
2024/03/09 13:16:10;;;;;;;24.10;10.40;;;;;;;9.56;47.73;100911.81;106675;1254;61238;-85
2024/03/09 13:18:44;;;;;;;20.50;9.60;;;;;;;9.62;48.08;100915.36;106341;1253;61331;-86
2024/03/09 13:21:24;;;;;;;18.00;9.10;;;;;;;9.60;47.64;100909.67;106535;1258;75614;-86
2024/03/09 13:24:08;;;;;;;18.50;9.00;;;;;;;9.61;47.89;100911.31;106613;1257;68631;-92
2024/03/09 13:26:43;;;;;;;16.20;9.00;;;;;;;9.61;47.24;100910.39;106389;1254;75107;-86
2024/03/09 13:29:17;;;;;;;16.40;8.00;;;;;;;9.63;48.10;100913.51;106450;1259;61627;-89
2024/03/09 13:31:57;;;;;;;51.00;25.50;;;;;;;9.57;47.69;100918.98;106822;1259;61173;-85
2024/03/09 13:34:33;;;;;;;47.60;26.20;;;;;;;9.47;48.07;100921.46;106520;1255;77342;-87
2024/03/09 13:37:07;;;;;;;35.40;13.90;;;;;;;9.42;47.96;100924.09;106651;1256;70360;-89
2024/03/09 13:39:36;;;;;;;22.50;10.80;;;;;;;9.41;48.06;100924.52;106138;1257;309791;-86
2024/03/09 13:42:10;;;;;;;24.30;10.90;;;;;;;9.32;48.71;100922.92;106519;1256;61358;-88
2024/03/09 13:44:45;;;;;;;29.00;14.50;;;;;;;9.22;48.81;100921.63;106998;1259;61225;-87
2024/03/09 13:47:19;;;;;;;28.50;12.90;;;;;;;9.22;48.95;100922.23;106618;1256;77104;-87
2024/03/09 13:49:48;;;;;;;40.20;17.40;;;;;;;9.19;48.93;100925.20;106518;1257;70608;-86
2024/03/09 13:52:24;;;;;;;19.40;9.10;;;;;;;9.15;49.39;100927.73;106777;1253;71394;-86
2024/03/09 13:55:04;;;;;;;14.90;7.50;;;;;;;9.04;48.79;100926.15;106052;1262;61352;-91
2024/03/09 13:57:34;;;;;;;19.10;7.70;;;;;;;8.96;49.38;100929.93;107337;1259;61229;-87
2024/03/09 14:00:07;;;;;;;54.60;25.50;;;;;;;8.91;49.79;100933.64;106567;1260;75944;-86
2024/03/09 14:02:45;;;;;;;22.80;8.70;;;;;;;8.85;50.29;100930.21;107710;1251;68646;-87
2024/03/09 14:05:24;;;;;;;8.30;4.20;;;;;;;8.81;50.38;100930.42;107793;1254;73644;-93
2024/03/09 14:07:56;;;;;;;37.20;15.60;;;;;;;8.80;50.84;100935.05;107064;1256;61138;-87
2024/03/09 14:10:34;;;;;;;10.20;5.20;;;;;;;8.85;50.72;100933.58;106589;1256;62112;-87
2024/03/09 14:13:08;;;;;;;23.70;10.70;;;;;;;8.90;50.19;100936.79;107027;1254;73398;-85
2024/03/09 14:15:42;;;;;;;6.50;3.40;;;;;;;8.90;50.17;100934.99;106530;1256;68328;-86
2024/03/09 14:18:21;;;;;;;7.70;3.50;;;;;;;8.88;49.56;100937.70;106432;1258;72758;-92
2024/03/09 14:20:55;;;;;;;10.00;3.30;;;;;;;8.86;49.71;100933.70;106710;1254;60494;-93
2024/03/09 14:23:36;;;;;;;23.50;13.40;;;;;;;8.84;49.86;100935.30;106448;1254;62364;-91
2024/03/09 14:26:17;;;;;;;10.80;4.40;;;;;;;8.70;50.06;100935.80;106640;1258;75989;-95
2024/03/09 14:28:54;;;;;;;7.40;3.80;;;;;;;8.59;50.06;100937.77;106558;1259;68346;-86
2024/03/09 14:31:34;;;;;;;10.90;4.40;;;;;;;8.52;50.05;100939.09;106614;1257;72760;-91
2024/03/09 14:34:14;;;;;;;29.50;14.40;;;;;;;8.42;50.32;100935.70;106550;1254;61326;-91
2024/03/09 14:36:49;;;;;;;19.50;8.30;;;;;;;8.42;50.89;100938.42;106515;1257;61287;-86
2024/03/09 14:39:23;;;;;;;10.10;5.60;;;;;;;8.34;50.92;100937.16;106508;1253;76733;-91
2024/03/09 14:42:03;;;;;;;5.50;3.10;;;;;;;8.29;50.69;100936.10;106737;1254;71359;-92
2024/03/09 14:44:45;;;;;;;24.00;11.70;;;;;;;8.32;50.79;100936.09;106379;1253;74311;-87
2024/03/09 14:47:19;;;;;;;17.20;8.30;;;;;;;8.31;51.23;100936.45;106686;1257;61327;-86
2024/03/09 14:49:54;;;;;;;15.70;8.20;;;;;;;8.28;51.14;100935.42;106537;1253;61962;-91
2024/03/09 14:52:34;;;;;;;20.20;8.80;;;;;;;8.20;51.03;100937.17;106734;1254;77030;-87
2024/03/09 14:55:19;;;;;;;12.80;6.10;;;;;;;8.09;51.36;100941.33;106512;1251;70227;-93
2024/03/09 14:58:01;;;;;;;10.40;5.40;;;;;;;7.97;51.42;100943.22;106228;1254;73525;-91
2024/03/09 15:05:55;;;;;;;15.20;6.90;;;;;;;7.67;51.99;100946.58;106457;1254;74792;-88
2024/03/09 15:08:37;;;;;;;10.10;3.60;;;;;;;7.54;52.43;100950.45;106648;1258;70192;-87
2024/03/09 15:11:14;;;;;;;12.60;4.30;;;;;;;7.43;52.63;100950.54;106584;1251;75210;-87
2024/03/09 15:13:44;;;;;;;13.60;4.40;;;;;;;7.39;52.35;100952.75;106280;1255;61447;-92
2024/03/09 15:16:26;;;;;;;11.30;4.60;;;;;;;7.31;52.66;100955.92;106494;1252;62218;-90
2024/03/09 15:19:10;;;;;;;15.00;5.70;;;;;;;7.19;53.00;100951.97;106744;1254;77077;-91
2024/03/09 15:21:44;;;;;;;12.80;5.50;;;;;;;7.09;53.59;100954.67;106570;1254;71545;-86
2024/03/09 15:24:20;;;;;;;14.60;5.00;;;;;;;6.98;53.93;100956.52;106371;1254;74067;-87
2024/03/09 15:27:00;;;;;;;9.50;4.70;;;;;;;6.93;54.40;100957.95;106411;1254;61352;-87
2024/03/09 15:29:40;;;;;;;21.10;7.90;;;;;;;6.79;54.83;100956.45;106506;1254;61287;-91
2024/03/09 15:32:14;;;;;;;23.50;9.10;;;;;;;6.71;55.49;100956.14;106603;1254;76478;-89
2024/03/09 15:34:48;;;;;;;17.40;7.50;;;;;;;6.65;56.24;100957.30;106320;1254;70666;-91
2024/03/09 15:37:28;;;;;;;15.10;6.60;;;;;;;6.52;56.46;100960.73;106618;1257;72589;-91
2024/03/09 15:40:13;;;;;;;17.10;6.90;;;;;;;6.41;57.19;100962.63;106531;1254;61330;-90
2024/03/09 15:42:47;;;;;;;21.70;9.70;;;;;;;6.36;57.55;100961.15;106639;1251;62737;-90
2024/03/09 15:45:21;;;;;;;35.20;15.80;;;;;;;6.34;57.57;100963.44;106682;1257;76837;-89
2024/03/09 15:48:06;;;;;;;33.80;15.70;;;;;;;6.27;57.54;100965.41;106414;1254;68688;-87
2024/03/09 15:50:43;;;;;;;21.80;11.10;;;;;;;6.12;58.17;100964.65;106866;1254;73599;-91
2024/03/09 15:53:17;;;;;;;22.70;11.40;;;;;;;6.02;58.63;100967.59;106625;1254;61279;-91
2024/03/09 15:55:49;;;;;;;19.60;9.10;;;;;;;5.92;59.05;100970.54;106868;1257;61083;-90
2024/03/09 15:58:24;;;;;;;22.20;9.20;;;;;;;5.84;59.47;100971.99;106545;1260;76984;-87
2024/03/09 16:01:03;;;;;;;19.50;9.00;;;;;;;5.71;59.89;100975.28;106698;1252;69276;-88
2024/03/09 16:03:37;;;;;;;21.50;9.90;;;;;;;5.58;60.46;100974.44;106654;1251;72449;-90
2024/03/09 16:06:07;;;;;;;31.90;16.50;;;;;;;5.49;60.59;100976.70;106890;1251;61466;-88
2024/03/09 16:08:42;;;;;;;28.90;17.80;;;;;;;5.30;61.40;100978.66;106716;1254;61262;-89
2024/03/09 16:11:15;;;;;;;32.40;18.70;;;;;;;5.24;61.60;100985.98;107452;1251;74543;-90
2024/03/09 16:13:43;;;;;;;30.80;17.50;;;;;;;5.18;61.77;100987.02;106933;1251;68795;-89
2024/03/09 16:16:20;;;;;;;26.50;14.80;;;;;;;5.08;62.10;100990.36;106776;1251;72689;-89
2024/03/09 16:18:54;;;;;;;21.10;12.60;;;;;;;4.96;62.57;100992.90;106769;1251;61518;-88
2024/03/09 16:21:28;;;;;;;24.90;10.00;;;;;;;4.87;63.23;100995.73;106436;1259;61151;-89
2024/03/09 16:23:56;;;;;;;16.80;9.20;;;;;;;4.74;63.89;101001.14;106553;1251;76118;-88
2024/03/09 16:26:33;;;;;;;27.60;13.80;;;;;;;4.60;64.41;101002.81;106334;1254;69861;-89
2024/03/09 16:29:07;;;;;;;26.80;12.70;;;;;;;4.47;65.08;101002.14;106593;1254;73643;-88
2024/03/09 16:31:41;;;;;;;25.30;11.60;;;;;;;4.35;65.70;101001.02;106488;1254;61158;-88
2024/03/09 16:34:10;;;;;;;21.40;7.70;;;;;;;4.19;66.81;101005.89;106801;1257;62300;-88
2024/03/09 16:36:45;;;;;;;15.70;7.90;;;;;;;4.03;67.72;101008.58;106342;1258;76817;-88
2024/03/09 16:39:22;;;;;;;18.50;8.60;;;;;;;3.91;68.74;101012.09;106585;1251;70365;-88
2024/03/09 16:41:50;;;;;;;15.90;8.30;;;;;;;3.74;70.52;101016.77;106306;1258;73559;-87
2024/03/09 16:44:20;;;;;;;17.30;7.80;;;;;;;3.60;72.41;101014.95;106389;1254;61418;-87
2024/03/09 16:46:55;;;;;;;16.10;8.50;;;;;;;3.48;74.73;101020.07;106636;1254;61259;-87
2024/03/09 16:49:24;;;;;;;32.00;8.10;;;;;;;3.38;76.62;101021.00;106472;1260;77979;-86
2024/03/09 16:51:52;;;;;;;38.60;15.40;;;;;;;3.34;77.62;101027.20;106232;1254;70059;-87
2024/03/09 16:54:26;;;;;;;58.30;15.90;;;;;;;3.23;78.29;101029.26;106284;1257;73662;-87
2024/03/09 16:57:00;;;;;;;37.70;12.40;;;;;;;3.07;79.18;101033.02;106913;1259;61369;-87
2024/03/09 16:59:34;;;;;;;22.70;8.80;;;;;;;2.92;80.85;101033.15;106403;1253;61308;-87
2024/03/09 17:02:02;;;;;;;37.00;10.30;;;;;;;2.85;81.80;101036.41;106476;1251;76834;-86
2024/03/09 17:04:36;;;;;;;34.10;10.70;;;;;;;2.78;81.90;101041.13;106394;1251;69584;-87
2024/03/09 17:07:11;;;;;;;24.90;10.90;;;;;;;2.73;82.74;101046.34;106470;1251;73682;-87
2024/03/09 17:09:46;;;;;;;27.50;12.10;;;;;;;2.65;84.85;101045.54;106741;1256;63184;-85
2024/03/09 17:12:14;;;;;;;34.90;13.20;;;;;;;2.53;85.88;101048.92;106523;1256;61229;-88
2024/03/09 17:14:51;;;;;;;31.30;13.80;;;;;;;2.48;87.02;101049.14;106480;1256;76972;-87
2024/03/09 17:17:25;;;;;;;36.20;16.70;;;;;;;2.42;87.82;101045.64;106518;1251;71266;-86
2024/03/09 17:19:52;;;;;;;43.60;19.70;;;;;;;2.34;88.77;101048.85;106333;1256;76088;-87
2024/03/09 17:22:29;;;;;;;43.80;18.70;;;;;;;2.30;89.33;101052.05;106265;1251;61318;-85
2024/03/09 17:25:04;;;;;;;54.60;22.50;;;;;;;2.25;89.63;101056.70;106558;1252;62050;-86
2024/03/09 17:27:37;;;;;;;41.30;15.20;;;;;;;2.19;90.22;101059.70;106777;1256;76128;-86
2024/03/09 17:30:06;;;;;;;37.60;15.40;;;;;;;2.10;91.19;101059.02;106278;1251;70324;-86
2024/03/09 17:32:41;;;;;;;33.20;13.50;;;;;;;2.04;91.61;101058.80;106628;1254;73940;-87
2024/03/09 17:35:17;;;;;;;32.10;12.50;;;;;;;1.97;92.10;101062.29;106404;1251;61242;-86
2024/03/09 17:37:51;;;;;;;24.50;11.00;;;;;;;1.91;92.45;101061.41;106532;1254;61183;-86
2024/03/09 17:40:19;;;;;;;21.80;9.00;;;;;;;1.83;93.17;101063.69;106577;1252;76196;-87
2024/03/09 17:42:54;;;;;;;28.40;11.60;;;;;;;1.79;94.09;101066.55;106564;1254;69326;-86
2024/03/09 17:45:29;;;;;;;32.50;14.20;;;;;;;1.72;94.69;101071.64;106447;1254;74890;-86
2024/03/09 17:48:07;;;;;;;27.40;12.60;;;;;;;1.70;95.07;101074.20;106590;1251;61349;-86
2024/03/09 17:50:36;;;;;;;29.10;13.50;;;;;;;1.64;95.76;101073.38;106516;1251;61238;-86
2024/03/09 17:53:11;;;;;;;27.40;12.70;;;;;;;1.62;96.22;101073.83;106524;1254;74762;-86
2024/03/09 17:55:47;;;;;;;30.30;13.40;;;;;;;1.55;96.72;101069.21;106550;1256;71311;-86
2024/03/09 17:58:21;;;;;;;31.30;13.50;;;;;;;1.49;97.23;101071.31;106661;1251;75369;-85
2024/03/09 18:00:50;;;;;;;29.00;14.30;;;;;;;1.41;97.77;101073.45;106671;1253;61181;-86
2024/03/09 18:03:18;;;;;;;41.60;16.80;;;;;;;1.32;98.68;101073.15;106569;1251;61482;-86
2024/03/09 18:05:54;;;;;;;36.60;16.20;;;;;;;1.24;99.27;101072.91;106499;1251;76643;-85
2024/03/09 18:08:33;;;;;;;39.30;14.90;;;;;;;1.15;99.69;101075.95;106688;1251;70502;-85
2024/03/09 18:11:07;;;;;;;35.20;15.00;;;;;;;1.06;99.82;101076.05;106480;1259;73769;-85
2024/03/09 18:13:36;;;;;;;37.50;14.80;;;;;;;0.98;100.00;101076.34;106675;1253;61252;-85
2024/03/09 18:16:14;;;;;;;35.40;17.20;;;;;;;0.92;100.00;101080.37;106664;1251;61241;-86
2024/03/09 18:18:44;;;;;;;40.50;16.50;;;;;;;0.81;100.00;101082.39;106846;1251;77378;-85
2024/03/09 18:21:15;;;;;;;38.30;17.10;;;;;;;0.68;100.00;101084.92;106683;1253;70903;-86
2024/03/09 18:23:43;;;;;;;36.40;17.00;;;;;;;0.62;100.00;101080.06;107003;1253;73753;-84
2024/03/09 18:26:18;;;;;;;31.80;14.80;;;;;;;0.51;100.00;101081.94;106589;1257;63671;-85
2024/03/09 18:28:50;;;;;;;31.80;14.40;;;;;;;0.46;100.00;101080.63;106683;1256;62159;-85
2024/03/09 18:31:18;;;;;;;27.20;12.00;;;;;;;0.37;100.00;101078.66;106479;1251;76047;-85
2024/03/09 18:33:52;;;;;;;20.60;10.40;;;;;;;0.31;100.00;101084.86;106507;1256;70213;-84
2024/03/09 18:36:28;;;;;;;24.50;11.70;;;;;;;0.27;100.00;101080.70;106872;1253;73713;-86
2024/03/09 18:38:57;;;;;;;28.10;11.60;;;;;;;0.21;100.00;101084.20;106710;1254;61266;-85
2024/03/09 18:41:27;;;;;;;23.50;10.20;;;;;;;0.17;100.00;101082.90;106527;1251;62415;-85
2024/03/09 18:44:01;;;;;;;24.40;11.90;;;;;;;0.10;100.00;101082.93;106479;1250;76749;-84
2024/03/09 18:46:29;;;;;;;29.20;10.40;;;;;;;0.04;100.00;101084.98;106973;1250;70814;-84
2024/03/09 18:49:03;;;;;;;23.60;10.00;;;;;;;-0.05;100.00;101086.73;106923;1253;74818;-84
2024/03/09 18:51:32;;;;;;;30.90;12.60;;;;;;;-0.04;100.00;101089.10;106856;1266;61694;-84
2024/03/09 18:54:07;;;;;;;22.90;10.30;;;;;;;-0.06;100.00;101089.34;106860;1257;61584;-85
2024/03/09 18:56:38;;;;;;;23.90;11.10;;;;;;;-0.08;100.00;101090.55;107512;1251;76697;-87
2024/03/09 18:59:12;;;;;;;23.30;9.90;;;;;;;-0.13;100.00;101094.20;106857;1257;71086;-85
2024/03/09 19:01:40;;;;;;;17.70;8.70;;;;;;;-0.14;100.00;101089.52;106530;1253;73526;-87
2024/03/09 19:04:14;;;;;;;17.30;9.30;;;;;;;-0.15;100.00;101091.31;106487;1250;61327;-83
2024/03/09 19:06:43;;;;;;;17.60;7.80;;;;;;;-0.24;100.00;101092.85;106458;1251;61449;-87
2024/03/09 19:09:12;;;;;;;20.10;8.30;;;;;;;-0.22;100.00;101096.63;106409;1250;77678;-88
2024/03/09 19:11:52;;;;;;;22.90;9.00;;;;;;;-0.26;100.00;101097.67;106440;1258;71170;-85
2024/03/09 19:14:26;;;;;;;18.60;8.30;;;;;;;-0.31;100.00;101101.55;107097;1250;74854;-87
2024/03/09 19:17:01;;;;;;;18.50;8.60;;;;;;;-0.31;100.00;101098.23;106472;1253;61387;-84
2024/03/09 19:19:30;;;;;;;19.90;8.30;;;;;;;-0.36;100.00;101097.29;106440;1251;62031;-84
2024/03/09 19:22:04;;;;;;;20.20;9.00;;;;;;;-0.46;100.00;101099.02;106429;1250;76723;-87
2024/03/09 19:24:32;;;;;;;23.30;10.10;;;;;;;-0.53;100.00;101095.63;106604;1253;69566;-87
2024/03/09 19:27:06;;;;;;;19.90;7.20;;;;;;;-0.55;100.00;101095.55;106652;1251;74915;-85
2024/03/09 19:29:35;;;;;;;18.50;7.90;;;;;;;-0.59;100.00;101091.52;106447;1253;61353;-87
2024/03/09 19:32:08;;;;;;;21.60;9.20;;;;;;;-0.62;100.00;101094.08;106253;1250;61400;-85
2024/03/09 19:34:42;;;;;;;20.60;8.80;;;;;;;-0.71;100.00;101095.30;106423;1257;76984;-84
2024/03/09 19:37:13;;;;;;;21.30;7.60;;;;;;;-0.77;100.00;101096.34;106419;1257;71381;-87
2024/03/09 19:39:48;;;;;;;20.20;7.80;;;;;;;-0.81;100.00;101096.27;106284;1251;73954;-84
2024/03/09 19:42:24;;;;;;;17.10;7.20;;;;;;;-0.80;100.00;101099.48;107285;1250;61426;-84
2024/03/09 19:44:51;;;;;;;15.90;6.90;;;;;;;-0.78;100.00;101099.77;107412;1251;61974;-84
2024/03/09 19:47:19;;;;;;;18.70;7.80;;;;;;;-0.79;100.00;101100.63;106465;1256;76917;-84
2024/03/09 23:49:02;;;;;;;36.80;16.20;;;;;;;-4.06;100.00;101061.17;106305;1250;68812;-85
2024/03/09 23:51:36;;;;;;;33.50;15.20;;;;;;;-4.04;100.00;101061.01;106332;1253;71519;-85
2024/03/09 23:54:10;;;;;;;32.00;15.20;;;;;;;-4.12;100.00;101063.81;106607;1253;61221;-84
2024/03/09 23:56:44;;;;;;;31.30;14.50;;;;;;;-4.15;100.00;101064.75;106588;1250;61343;-84
2024/03/09 23:59:19;;;;;;;33.10;14.70;;;;;;;-4.16;100.00;101065.72;106772;1256;74648;-85
